Nordlys — YJTS2 — position and weather

sailwx.info

Track history (hours):
 
Tides and Currents Weather Stations Pressure Air Temp Water Temp Dewpoint Dewpoint Depression Visibility Wind Speed Wind Dir Waves Ship Positions

Nordlys

Ship's website: http://fairtransport.eu/category/nordlys/

Last reported at 2019-Oct-27 15:37 UTC. Time now 2019-Dec-06 05:55 UTC.
Position N 52°58' E 004°46'.
Warning: this ship's position is 39 days out of date.

Length 20 m; draft 3 m.

MMSI: 577228000.

Date/timePositionNaut miles runAvg speedWind from/ knotsBaromVisibWave heightAir tempDewpointWater temp
2019-Oct-27 15:37N 52°58' E 004°46'0 0.0
2019-Oct-27 15:04N 52°58' E 004°46'0 0.5
2019-Oct-27 14:55N 52°57' E 004°46'1 1.5
2019-Oct-27 14:23N 52°57' E 004°47'2 2.4
2019-Oct-27 13:39N 52°58' E 004°45'1 5.6
2019-Oct-27 13:24N 52°58' E 004°43'3 5.6
2019-Oct-27 12:53N 52°56' E 004°40'3 5.2
2019-Oct-27 12:20N 52°53' E 004°38'2 5.4
2019-Oct-27 12:00N 52°52' E 004°36'3 5.2
2019-Oct-27 11:30N 52°49' E 004°35'2 4.8
2019-Oct-27 11:01N 52°47' E 004°34'2 3.9
2019-Oct-27 10:30N 52°45' E 004°34'2 3.5
2019-Oct-27 10:00N 52°43' E 004°34'1 2.9
2019-Oct-27 09:30N 52°42' E 004°33'1 2.1
2019-Oct-27 09:01N 52°41' E 004°33'0 0.9
2019-Oct-27 08:29N 52°40' E 004°33'1 1.4
2019-Oct-27 08:00N 52°40' E 004°33'0 0.9
2019-Oct-27 07:30N 52°39' E 004°33'1 1.6
2019-Oct-27 07:01N 52°40' E 004°33'1 2.4
2019-Oct-27 06:30N 52°41' E 004°33'1 2.2
2019-Oct-27 06:00N 52°42' E 004°33'1 1.6
2019-Oct-27 05:30N 52°43' E 004°34'1 1.0
2019-Oct-27 05:00N 52°43' E 004°33'0 0.9
2019-Oct-27 04:31N 52°44' E 004°34'1 1.7
2019-Oct-27 04:00N 52°45' E 004°35'3 2.3
2019-Oct-27 02:31N 52°41' E 004°33'2 4.3
2019-Oct-27 02:00N 52°39' E 004°32'2 4.3
2019-Oct-27 01:30N 52°37' E 004°31'2 4.0
2019-Oct-27 01:00N 52°35' E 004°30'2 4.0
2019-Oct-27 00:30N 52°33' E 004°29'2 3.9
2019-Oct-27 00:01N 52°31' E 004°28'2 3.3
2019-Oct-26 23:30N 52°30' E 004°27'1 2.5
2019-Oct-26 23:00N 52°29' E 004°25'1 2.8
2019-Oct-26 22:31N 52°28' E 004°23'1 1.3
2019-Oct-26 21:59N 52°28' E 004°22'0 0.7
2019-Oct-26 21:30N 52°28' E 004°22'1 1.0
2019-Oct-26 21:01N 52°28' E 004°21'2 4.8
2019-Oct-26 20:31N 52°26' E 004°18'3 5.3
2019-Oct-26 20:01N 52°24' E 004°15'3 5.7
2019-Oct-26 19:31N 52°21' E 004°15'3 5.3
2019-Oct-26 19:00N 52°18' E 004°14'3 5.4
2019-Oct-26 18:30N 52°16' E 004°14'3 5.2
2019-Oct-26 18:00N 52°13' E 004°14'3 5.4
2019-Oct-26 17:30N 52°10' E 004°14'2 4.9
2019-Oct-26 17:00N 52°08' E 004°11'3 5.6
2019-Oct-26 16:30N 52°07' E 004°08'3 6.2
2019-Oct-26 16:00N 52°04' E 004°04'3 5.8
2019-Oct-26 15:30N 52°02' E 004°01'3 6.2
2019-Oct-26 15:00N 52°00' E 003°57'3 5.9
2019-Oct-26 14:30N 51°58' E 003°54'3 6.8
2019-Oct-26 13:59N 51°56' E 003°50'4 7.1
2019-Oct-26 13:28N 51°54' E 003°45'28 6.9
2019-Oct-26 09:26N 51°32' E 003°16'2 5.7
2019-Oct-26 09:00N 51°31' E 003°13'3 5.5
2019-Oct-26 08:30N 51°29' E 003°10'2 4.9
2019-Oct-26 08:00N 51°27' E 003°07'2 4.8
2019-Oct-26 07:31N 51°26' E 003°04'3 5.0
2019-Oct-26 07:00N 51°24' E 003°01'2 4.4
2019-Oct-26 06:30N 51°23' E 002°58'2 4.4
2019-Oct-26 06:01N 51°22' E 002°55'2 4.0
2019-Oct-26 05:30N 51°21' E 002°52'2 4.5
2019-Oct-26 05:00N 51°20' E 002°49'2 4.2
2019-Oct-26 04:30N 51°19' E 002°46'2 4.3
2019-Oct-26 04:00N 51°18' E 002°43'2 4.9
2019-Oct-26 03:30N 51°17' E 002°40'2 4.9
2019-Oct-26 03:00N 51°15' E 002°36'3 5.6
2019-Oct-26 02:26N 51°13' E 002°32'3 6.1
2019-Oct-26 01:59N 51°12' E 002°29'3 6.2
2019-Oct-26 01:26N 51°10' E 002°24'3 6.4
2019-Oct-26 01:00N 51°09' E 002°20'3 6.2
2019-Oct-26 00:30N 51°09' E 002°15'4 7.6
2019-Oct-25 23:59N 51°07' E 002°10'4 8.2
2019-Oct-25 23:29N 51°04' E 002°05'159 6.4
2019-Oct-24 22:47N 50°04' W 001°47'1 4.7
2019-Oct-24 22:30N 50°04' W 001°49'2 4.4
2019-Oct-24 22:00N 50°04' W 001°53'2 4.3
2019-Oct-24 21:30N 50°04' W 001°56'36 7.1
2019-Oct-24 16:25N 50°13' W 002°50'3 8.2
2019-Oct-24 16:01N 50°14' W 002°55'4 7.4
2019-Oct-24 15:31N 50°15' W 003°01'4 8.1
2019-Oct-24 15:01N 50°16' W 003°07'4 7.5
2019-Oct-24 14:30N 50°18' W 003°12'4 7.3
2019-Oct-24 14:00N 50°19' W 003°17'3 6.6
2019-Oct-24 13:30N 50°20' W 003°22'3 5.7
2019-Oct-24 13:00N 50°21' W 003°26'3 5.4
2019-Oct-24 12:30N 50°24' W 003°28'2 4.4
2019-Oct-24 12:00N 50°25' W 003°30'2 4.2
2019-Oct-24 11:29N 50°27' W 003°32'0 0.1
2019-Oct-24 10:59N 50°27' W 003°32'0 0.1
2019-Oct-24 10:29N 50°27' W 003°32'0 0.1
2019-Oct-24 09:59N 50°27' W 003°32'0 0.1
2019-Oct-24 09:29N 50°27' W 003°32'0 0.3
2019-Oct-24 08:59N 50°27' W 003°32'0 0.0
2019-Oct-23 19:07N 50°27' W 003°32'0 0.0
2019-Oct-23 18:58N 50°27' W 003°32'0 0.0
2019-Oct-23 18:29N 50°27' W 003°32'0 0.0
2019-Oct-23 17:58N 50°27' W 003°32'0 0.0
2019-Oct-23 17:28N 50°27' W 003°32'0 0.0
2019-Oct-23 16:58N 50°27' W 003°32'0 0.0
2019-Oct-23 16:28N 50°27' W 003°32'0 0.0
2019-Oct-23 15:59N 50°27' W 003°32'  
2019-Oct-19 14:34N 50°27' W 003°32'0 0.0
2019-Oct-19 14:28N 50°27' W 003°32'0 0.0
2019-Oct-19 13:58N 50°27' W 003°32'0 0.0
2019-Oct-19 13:28N 50°27' W 003°32'0 0.0
2019-Oct-19 12:58N 50°27' W 003°32'0 0.0
2019-Oct-19 12:28N 50°27' W 003°32'0 0.0
2019-Oct-19 11:58N 50°27' W 003°32'0 0.0
2019-Oct-19 11:28N 50°27' W 003°32'0 0.0
2019-Oct-19 10:58N 50°27' W 003°32'1 1.2
2019-Oct-19 10:28N 50°27' W 003°32'1 1.1
2019-Oct-19 09:58N 50°26' W 003°32'0 0.3
2019-Oct-19 09:30N 50°26' W 003°32'1 2.8
2019-Oct-19 09:00N 50°25' W 003°31'2 3.0
2019-Oct-19 08:28N 50°27' W 003°32'0 0.7
2019-Oct-19 07:58N 50°27' W 003°32'0 0.4
2019-Oct-19 07:28N 50°27' W 003°32'1 1.0
2019-Oct-19 06:58N 50°27' W 003°32'0 0.9
2019-Oct-19 06:28N 50°26' W 003°32'0 0.7
2019-Oct-19 05:58N 50°26' W 003°32'0 0.4
2019-Oct-19 05:28N 50°26' W 003°32'0 0.7
2019-Oct-19 04:58N 50°26' W 003°32'0 0.3
2019-Oct-19 04:28N 50°26' W 003°32'1 2.1
2019-Oct-19 03:58N 50°25' W 003°31'1 1.6
2019-Oct-19 03:28N 50°25' W 003°31'0 0.4
2019-Oct-19 02:58N 50°25' W 003°30'1 1.6
2019-Oct-19 02:28N 50°25' W 003°31'1 1.2
2019-Oct-19 01:58N 50°26' W 003°32'1 1.7
2019-Oct-19 01:28N 50°27' W 003°32'0 0.8
2019-Oct-19 01:00N 50°26' W 003°32'2 3.1
2019-Oct-19 00:30N 50°25' W 003°31'0 0.7
2019-Oct-19 00:00N 50°25' W 003°31'1 1.3
2019-Oct-18 23:30N 50°26' W 003°31'1 1.2
2019-Oct-18 23:00N 50°26' W 003°31'0 0.7
2019-Oct-18 22:30N 50°26' W 003°32'0 0.6
2019-Oct-18 22:00N 50°27' W 003°32'0 0.7
2019-Oct-18 21:30N 50°27' W 003°32'0 0.6
2019-Oct-18 20:58N 50°26' W 003°32'1 1.1
2019-Oct-18 20:28N 50°26' W 003°31'0 0.9
2019-Oct-18 19:58N 50°26' W 003°31'0 1.0
2019-Oct-18 19:28N 50°25' W 003°31'1 1.2
2019-Oct-18 18:58N 50°25' W 003°30'1 1.1
2019-Oct-18 18:28N 50°24' W 003°30'1 1.5
2019-Oct-18 18:01N 50°24' W 003°29'2 3.9
2019-Oct-18 17:31N 50°22' W 003°28'3 5.1
2019-Oct-18 17:00N 50°20' W 003°27'3 6.5
2019-Oct-18 16:30N 50°17' W 003°26'3 6.8
2019-Oct-18 16:00N 50°13' W 003°27'3 6.5
2019-Oct-18 15:30N 50°10' W 003°29'3 6.5
2019-Oct-18 15:00N 50°07' W 003°30'3 5.9
2019-Oct-18 14:30N 50°04' W 003°32'3 6.0
2019-Oct-18 14:00N 50°02' W 003°34'3 6.5
2019-Oct-18 13:30N 49°59' W 003°36'3 6.9
2019-Oct-18 13:00N 49°55' W 003°38'4 7.2
2019-Oct-18 12:30N 49°52' W 003°40'3 7.0
2019-Oct-18 12:00N 49°49' W 003°43'4 7.0
2019-Oct-18 11:30N 49°46' W 003°46'5 7.0
2019-Oct-18 10:50N 49°42' W 003°50'  
Track history (hours):
 
Tides and Currents Weather Stations Pressure Air Temp Water Temp Dewpoint Dewpoint Depression Visibility Wind Speed Wind Dir Waves Ship Positions

Nordlys

Ship's website: http://fairtransport.eu/category/nordlys/

Last reported at 2019-Oct-27 15:37 UTC. Time now 2019-Dec-06 05:55 UTC.
Position N 52°58' E 004°46'.
Warning: this ship's position is 39 days out of date.

Length 20 m; draft 3 m.

MMSI: 577228000.

Date/timePositionNaut miles runAvg speedWind from/ knotsBaromVisibWave heightAir tempDewpointWater temp
2019-Oct-27 15:37N 52°58' E 004°46'0 0.0
2019-Oct-27 15:04N 52°58' E 004°46'0 0.5
2019-Oct-27 14:55N 52°57' E 004°46'1 1.5
2019-Oct-27 14:23N 52°57' E 004°47'2 2.4
2019-Oct-27 13:39N 52°58' E 004°45'1 5.6
2019-Oct-27 13:24N 52°58' E 004°43'3 5.6
2019-Oct-27 12:53N 52°56' E 004°40'3 5.2
2019-Oct-27 12:20N 52°53' E 004°38'2 5.4
2019-Oct-27 12:00N 52°52' E 004°36'3 5.2
2019-Oct-27 11:30N 52°49' E 004°35'2 4.8
2019-Oct-27 11:01N 52°47' E 004°34'2 3.9
2019-Oct-27 10:30N 52°45' E 004°34'2 3.5
2019-Oct-27 10:00N 52°43' E 004°34'1 2.9
2019-Oct-27 09:30N 52°42' E 004°33'1 2.1
2019-Oct-27 09:01N 52°41' E 004°33'0 0.9
2019-Oct-27 08:29N 52°40' E 004°33'1 1.4
2019-Oct-27 08:00N 52°40' E 004°33'0 0.9
2019-Oct-27 07:30N 52°39' E 004°33'1 1.6
2019-Oct-27 07:01N 52°40' E 004°33'1 2.4
2019-Oct-27 06:30N 52°41' E 004°33'1 2.2
2019-Oct-27 06:00N 52°42' E 004°33'1 1.6
2019-Oct-27 05:30N 52°43' E 004°34'1 1.0
2019-Oct-27 05:00N 52°43' E 004°33'0 0.9
2019-Oct-27 04:31N 52°44' E 004°34'1 1.7
2019-Oct-27 04:00N 52°45' E 004°35'3 2.3
2019-Oct-27 02:31N 52°41' E 004°33'2 4.3
2019-Oct-27 02:00N 52°39' E 004°32'2 4.3
2019-Oct-27 01:30N 52°37' E 004°31'2 4.0
2019-Oct-27 01:00N 52°35' E 004°30'2 4.0
2019-Oct-27 00:30N 52°33' E 004°29'2 3.9
2019-Oct-27 00:01N 52°31' E 004°28'2 3.3
2019-Oct-26 23:30N 52°30' E 004°27'1 2.5
2019-Oct-26 23:00N 52°29' E 004°25'1 2.8
2019-Oct-26 22:31N 52°28' E 004°23'1 1.3
2019-Oct-26 21:59N 52°28' E 004°22'0 0.7
2019-Oct-26 21:30N 52°28' E 004°22'1 1.0
2019-Oct-26 21:01N 52°28' E 004°21'2 4.8
2019-Oct-26 20:31N 52°26' E 004°18'3 5.3
2019-Oct-26 20:01N 52°24' E 004°15'3 5.7
2019-Oct-26 19:31N 52°21' E 004°15'3 5.3
2019-Oct-26 19:00N 52°18' E 004°14'3 5.4
2019-Oct-26 18:30N 52°16' E 004°14'3 5.2
2019-Oct-26 18:00N 52°13' E 004°14'3 5.4
2019-Oct-26 17:30N 52°10' E 004°14'2 4.9
2019-Oct-26 17:00N 52°08' E 004°11'3 5.6
2019-Oct-26 16:30N 52°07' E 004°08'3 6.2
2019-Oct-26 16:00N 52°04' E 004°04'3 5.8
2019-Oct-26 15:30N 52°02' E 004°01'3 6.2
2019-Oct-26 15:00N 52°00' E 003°57'3 5.9
2019-Oct-26 14:30N 51°58' E 003°54'3 6.8
2019-Oct-26 13:59N 51°56' E 003°50'4 7.1
2019-Oct-26 13:28N 51°54' E 003°45'28 6.9
2019-Oct-26 09:26N 51°32' E 003°16'2 5.7
2019-Oct-26 09:00N 51°31' E 003°13'3 5.5
2019-Oct-26 08:30N 51°29' E 003°10'2 4.9
2019-Oct-26 08:00N 51°27' E 003°07'2 4.8
2019-Oct-26 07:31N 51°26' E 003°04'3 5.0
2019-Oct-26 07:00N 51°24' E 003°01'2 4.4
2019-Oct-26 06:30N 51°23' E 002°58'2 4.4
2019-Oct-26 06:01N 51°22' E 002°55'2 4.0
2019-Oct-26 05:30N 51°21' E 002°52'2 4.5
2019-Oct-26 05:00N 51°20' E 002°49'2 4.2
2019-Oct-26 04:30N 51°19' E 002°46'2 4.3
2019-Oct-26 04:00N 51°18' E 002°43'2 4.9
2019-Oct-26 03:30N 51°17' E 002°40'2 4.9
2019-Oct-26 03:00N 51°15' E 002°36'3 5.6
2019-Oct-26 02:26N 51°13' E 002°32'3 6.1
2019-Oct-26 01:59N 51°12' E 002°29'3 6.2
2019-Oct-26 01:26N 51°10' E 002°24'3 6.4
2019-Oct-26 01:00N 51°09' E 002°20'3 6.2
2019-Oct-26 00:30N 51°09' E 002°15'4 7.6
2019-Oct-25 23:59N 51°07' E 002°10'4 8.2
2019-Oct-25 23:29N 51°04' E 002°05'159 6.4
2019-Oct-24 22:47N 50°04' W 001°47'1 4.7
2019-Oct-24 22:30N 50°04' W 001°49'2 4.4
2019-Oct-24 22:00N 50°04' W 001°53'2 4.3
2019-Oct-24 21:30N 50°04' W 001°56'36 7.1
2019-Oct-24 16:25N 50°13' W 002°50'3 8.2
2019-Oct-24 16:01N 50°14' W 002°55'4 7.4
2019-Oct-24 15:31N 50°15' W 003°01'4 8.1
2019-Oct-24 15:01N 50°16' W 003°07'4 7.5
2019-Oct-24 14:30N 50°18' W 003°12'4 7.3
2019-Oct-24 14:00N 50°19' W 003°17'3 6.6
2019-Oct-24 13:30N 50°20' W 003°22'3 5.7
2019-Oct-24 13:00N 50°21' W 003°26'3 5.4
2019-Oct-24 12:30N 50°24' W 003°28'2 4.4
2019-Oct-24 12:00N 50°25' W 003°30'2 4.2
2019-Oct-24 11:29N 50°27' W 003°32'0 0.1
2019-Oct-24 10:59N 50°27' W 003°32'0 0.1
2019-Oct-24 10:29N 50°27' W 003°32'0 0.1
2019-Oct-24 09:59N 50°27' W 003°32'0 0.1
2019-Oct-24 09:29N 50°27' W 003°32'0 0.3
2019-Oct-24 08:59N 50°27' W 003°32'0 0.0
2019-Oct-23 19:07N 50°27' W 003°32'0 0.0
2019-Oct-23 18:58N 50°27' W 003°32'0 0.0
2019-Oct-23 18:29N 50°27' W 003°32'0 0.0
2019-Oct-23 17:58N 50°27' W 003°32'0 0.0
2019-Oct-23 17:28N 50°27' W 003°32'0 0.0
2019-Oct-23 16:58N 50°27' W 003°32'0 0.0
2019-Oct-23 16:28N 50°27' W 003°32'0 0.0
2019-Oct-23 15:59N 50°27' W 003°32'  
2019-Oct-19 14:34N 50°27' W 003°32'0 0.0
2019-Oct-19 14:28N 50°27' W 003°32'0 0.0
2019-Oct-19 13:58N 50°27' W 003°32'0 0.0
2019-Oct-19 13:28N 50°27' W 003°32'0 0.0
2019-Oct-19 12:58N 50°27' W 003°32'0 0.0
2019-Oct-19 12:28N 50°27' W 003°32'0 0.0
2019-Oct-19 11:58N 50°27' W 003°32'0 0.0
2019-Oct-19 11:28N 50°27' W 003°32'0 0.0
2019-Oct-19 10:58N 50°27' W 003°32'1 1.2
2019-Oct-19 10:28N 50°27' W 003°32'1 1.1
2019-Oct-19 09:58N 50°26' W 003°32'0 0.3
2019-Oct-19 09:30N 50°26' W 003°32'1 2.8
2019-Oct-19 09:00N 50°25' W 003°31'2 3.0
2019-Oct-19 08:28N 50°27' W 003°32'0 0.7
2019-Oct-19 07:58N 50°27' W 003°32'0 0.4
2019-Oct-19 07:28N 50°27' W 003°32'1 1.0
2019-Oct-19 06:58N 50°27' W 003°32'0 0.9
2019-Oct-19 06:28N 50°26' W 003°32'0 0.7
2019-Oct-19 05:58N 50°26' W 003°32'0 0.4
2019-Oct-19 05:28N 50°26' W 003°32'0 0.7
2019-Oct-19 04:58N 50°26' W 003°32'0 0.3
2019-Oct-19 04:28N 50°26' W 003°32'1 2.1
2019-Oct-19 03:58N 50°25' W 003°31'1 1.6
2019-Oct-19 03:28N 50°25' W 003°31'0 0.4
2019-Oct-19 02:58N 50°25' W 003°30'1 1.6
2019-Oct-19 02:28N 50°25' W 003°31'1 1.2
2019-Oct-19 01:58N 50°26' W 003°32'1 1.7
2019-Oct-19 01:28N 50°27' W 003°32'0 0.8
2019-Oct-19 01:00N 50°26' W 003°32'2 3.1
2019-Oct-19 00:30N 50°25' W 003°31'0 0.7
2019-Oct-19 00:00N 50°25' W 003°31'1 1.3
2019-Oct-18 23:30N 50°26' W 003°31'1 1.2
2019-Oct-18 23:00N 50°26' W 003°31'0 0.7
2019-Oct-18 22:30N 50°26' W 003°32'0 0.6
2019-Oct-18 22:00N 50°27' W 003°32'0 0.7
2019-Oct-18 21:30N 50°27' W 003°32'0 0.6
2019-Oct-18 20:58N 50°26' W 003°32'1 1.1
2019-Oct-18 20:28N 50°26' W 003°31'0 0.9
2019-Oct-18 19:58N 50°26' W 003°31'0 1.0
2019-Oct-18 19:28N 50°25' W 003°31'1 1.2
2019-Oct-18 18:58N 50°25' W 003°30'1 1.1
2019-Oct-18 18:28N 50°24' W 003°30'1 1.5
2019-Oct-18 18:01N 50°24' W 003°29'2 3.9
2019-Oct-18 17:31N 50°22' W 003°28'3 5.1
2019-Oct-18 17:00N 50°20' W 003°27'3 6.5
2019-Oct-18 16:30N 50°17' W 003°26'3 6.8
2019-Oct-18 16:00N 50°13' W 003°27'3 6.5
2019-Oct-18 15:30N 50°10' W 003°29'3 6.5
2019-Oct-18 15:00N 50°07' W 003°30'3 5.9
2019-Oct-18 14:30N 50°04' W 003°32'3 6.0
2019-Oct-18 14:00N 50°02' W 003°34'3 6.5
2019-Oct-18 13:30N 49°59' W 003°36'3 6.9
2019-Oct-18 13:00N 49°55' W 003°38'4 7.2
2019-Oct-18 12:30N 49°52' W 003°40'3 7.0
2019-Oct-18 12:00N 49°49' W 003°43'4 7.0
2019-Oct-18 11:30N 49°46' W 003°46'5 7.0
2019-Oct-18 10:50N 49°42' W 003°50'  

Dump ship's entire track history